Time;durP1;ratioP1;P1;durP2;ratioP2;P2;SDS_P1;SDS_P2;PMS_P1;PMS_P2;Temp;Humidity;BMP_temperature;BMP_pressure;BME280_temperature;BME280_humidity;BME280_pressure;Samples;Min_cycle;Max_cycle;Signal;HPM_P1;HPM_P2
2022/12/03 00:00:24;;;;;;;32.23;19.83;;;3.60;1.00;;;;;;4993321;28;20229;-57
2022/12/03 00:02:50;;;;;;;31.90;20.87;;;3.50;1.00;;;;;;4990862;28;20219;-57
2022/12/03 00:05:16;;;;;;;30.90;19.93;;;3.40;1.00;;;;;;4992150;28;20284;-57
2022/12/03 00:07:41;;;;;;;38.17;22.33;;;3.40;1.00;;;;;;4997113;28;20801;-56
2022/12/03 00:10:07;;;;;;;33.50;20.97;;;3.50;1.00;;;;;;5012859;28;20200;-59
2022/12/03 00:12:33;;;;;;;31.60;18.80;;;3.50;1.00;;;;;;4998269;28;20195;-56
2022/12/03 00:14:58;;;;;;;36.37;21.60;;;3.50;1.00;;;;;;4991476;28;20457;-56
2022/12/03 00:17:24;;;;;;;31.20;19.43;;;3.50;1.00;;;;;;4990604;28;20677;-57
2022/12/03 00:19:49;;;;;;;31.67;19.50;;;3.50;1.00;;;;;;4984943;28;20295;-57
2022/12/03 00:22:15;;;;;;;34.20;19.07;;;3.40;1.00;;;;;;4991799;28;20196;-56
2022/12/03 00:24:41;;;;;;;33.03;18.40;;;3.40;1.00;;;;;;4988572;28;20193;-57
2022/12/03 00:27:06;;;;;;;30.83;19.50;;;3.30;1.00;;;;;;4988655;28;20204;-57
2022/12/03 00:29:32;;;;;;;34.70;19.67;;;3.30;1.00;;;;;;4986874;28;20233;-57
2022/12/03 00:31:58;;;;;;;36.00;21.73;;;3.20;1.00;;;;;;4989635;28;20459;-57
2022/12/03 00:34:23;;;;;;;28.87;19.03;;;3.20;1.00;;;;;;4983390;28;20221;-57
2022/12/03 00:36:49;;;;;;;38.70;22.23;;;3.30;1.00;;;;;;4986900;28;20200;-56
2022/12/03 00:39:14;;;;;;;35.83;22.07;;;3.40;1.00;;;;;;4988139;28;20282;-57
2022/12/03 00:41:40;;;;;;;35.77;20.37;;;3.40;1.00;;;;;;4986192;28;20193;-57
2022/12/03 00:44:06;;;;;;;39.80;21.40;;;3.40;1.00;;;;;;4986800;28;20820;-58
2022/12/03 00:46:31;;;;;;;36.20;20.93;;;3.40;1.00;;;;;;4991642;28;20312;-57
2022/12/03 00:48:57;;;;;;;33.00;19.27;;;3.40;1.00;;;;;;4989811;28;20647;-57
2022/12/03 00:51:22;;;;;;;34.90;20.87;;;3.40;1.00;;;;;;4974988;28;20185;-56
2022/12/03 00:53:48;;;;;;;34.33;20.77;;;3.50;1.00;;;;;;4990065;28;20201;-58
2022/12/03 00:56:14;;;;;;;32.83;20.70;;;3.50;1.00;;;;;;4989552;28;20263;-56
2022/12/03 00:58:39;;;;;;;30.97;19.90;;;3.40;1.00;;;;;;4990073;28;20291;-56
2022/12/03 01:01:05;;;;;;;38.30;22.00;;;3.50;1.00;;;;;;4987864;28;20634;-57
2022/12/03 01:03:31;;;;;;;41.60;21.73;;;3.40;1.00;;;;;;4983917;28;20200;-56
2022/12/03 01:05:56;;;;;;;34.00;19.50;;;3.40;1.00;;;;;;4986563;28;20288;-56
2022/12/03 01:08:22;;;;;;;33.07;20.97;;;3.60;1.00;;;;;;4988126;28;20288;-56
2022/12/03 01:10:47;;;;;;;34.20;20.03;;;3.60;1.00;;;;;;4990919;28;20196;-57
2022/12/03 01:13:13;;;;;;;39.67;21.23;;;3.60;1.00;;;;;;4987093;28;20191;-57
2022/12/03 01:15:38;;;;;;;31.97;19.57;;;3.50;1.00;;;;;;4990825;28;20222;-57
2022/12/03 01:18:04;;;;;;;34.80;20.73;;;3.50;1.00;;;;;;4984679;28;20194;-57
2022/12/03 01:20:30;;;;;;;31.27;20.33;;;3.60;1.00;;;;;;4986636;28;20228;-55
2022/12/03 01:22:55;;;;;;;33.87;20.27;;;3.60;1.00;;;;;;4993118;28;20193;-57
2022/12/03 01:25:21;;;;;;;32.30;19.80;;;3.50;1.00;;;;;;4984896;28;20181;-56
2022/12/03 01:27:47;;;;;;;35.93;20.80;;;3.60;1.00;;;;;;4982059;28;20245;-56
2022/12/03 01:30:13;;;;;;;32.97;18.50;;;3.60;1.00;;;;;;4983101;28;20701;-58
2022/12/03 01:32:38;;;;;;;33.03;19.90;;;3.60;1.00;;;;;;4991448;28;20194;-56
2022/12/03 01:35:04;;;;;;;34.40;20.97;;;3.60;1.00;;;;;;4991658;28;20461;-56
2022/12/03 01:37:30;;;;;;;31.10;18.40;;;3.60;1.00;;;;;;4985669;28;20236;-56
2022/12/03 01:39:56;;;;;;;38.87;20.87;;;3.60;1.00;;;;;;4983079;28;20562;-56
2022/12/03 01:42:25;;;;;;;33.77;19.97;;;3.60;1.00;;;;;;4990902;28;20283;-55
2022/12/03 01:44:56;;;;;;;32.63;20.50;;;3.60;1.00;;;;;;4987768;28;20197;-58
2022/12/03 01:47:32;;;;;;;33.07;18.43;;;3.60;1.00;;;;;;4989355;28;21075;-57
2022/12/03 01:50:28;;;;;;;32.53;19.57;;;3.50;1.00;;;;;;4986041;28;20849;-56
2022/12/03 01:52:56;;;;;;;30.47;18.40;;;3.60;1.00;;;;;;4985397;28;20457;-57
2022/12/03 01:55:24;;;;;;;33.00;20.90;;;3.60;1.00;;;;;;4987514;28;20462;-56
2022/12/03 01:57:53;;;;;;;30.77;20.00;;;3.60;1.00;;;;;;4979540;28;20456;-57
2022/12/03 02:00:22;;;;;;;29.07;19.60;;;3.60;1.00;;;;;;4990838;28;20465;-57
2022/12/03 02:02:51;;;;;;;32.10;19.80;;;3.50;1.00;;;;;;4987297;28;20461;-58
2022/12/03 02:05:26;;;;;;;29.50;18.80;;;3.50;1.00;;;;;;4986437;28;20964;-57
2022/12/03 02:07:52;;;;;;;33.63;20.30;;;3.40;1.00;;;;;;4985913;28;20825;-56
2022/12/03 02:10:24;;;;;;;30.13;17.90;;;3.30;1.00;;;;;;4988461;28;20472;-56
2022/12/03 02:12:56;;;;;;;33.20;20.70;;;3.30;1.00;;;;;;4982623;28;20533;-55
2022/12/03 02:15:22;;;;;;;30.73;18.43;;;3.20;1.00;;;;;;4988896;28;20463;-57
2022/12/03 02:17:48;;;;;;;28.40;18.60;;;3.20;1.00;;;;;;4984729;28;20531;-56
2022/12/03 02:20:14;;;;;;;37.37;19.83;;;3.20;1.00;;;;;;4987315;28;20291;-57
2022/12/03 02:23:18;;;;;;;33.00;21.23;;;3.10;1.00;;;;;;4986525;28;20192;-56
2022/12/03 02:25:44;;;;;;;32.27;18.83;;;3.10;1.00;;;;;;4988652;28;20483;-56
2022/12/03 02:28:10;;;;;;;35.00;19.37;;;3.10;1.00;;;;;;4983264;28;20463;-56
2022/12/03 02:30:36;;;;;;;33.30;20.40;;;3.00;1.00;;;;;;4986447;28;20231;-56
2022/12/03 02:33:02;;;;;;;31.40;19.13;;;3.00;1.00;;;;;;4986276;28;20452;-56
2022/12/03 02:35:31;;;;;;;37.43;21.20;;;3.10;1.00;;;;;;4986922;28;20447;-56
2022/12/03 02:38:02;;;;;;;31.47;19.13;;;3.10;1.00;;;;;;4985360;28;20989;-56
2022/12/03 02:40:31;;;;;;;34.03;18.73;;;3.10;1.00;;;;;;4984900;28;20486;-57
2022/12/03 02:43:00;;;;;;;33.97;19.37;;;3.10;1.00;;;;;;4981521;28;20536;-57
2022/12/03 02:45:38;;;;;;;29.20;19.90;;;3.20;1.00;;;;;;4989590;28;20867;-56
2022/12/03 02:48:16;;;;;;;35.83;19.60;;;3.20;1.00;;;;;;4985922;28;20806;-56
2022/12/03 02:50:56;;;;;;;35.03;21.07;;;3.20;1.00;;;;;;4989184;28;20775;-56
2022/12/03 02:53:26;;;;;;;31.37;19.30;;;3.20;1.00;;;;;;4990315;28;20446;-57
2022/12/03 02:55:53;;;;;;;29.47;19.23;;;3.20;1.00;;;;;;4987964;28;20451;-56
2022/12/03 02:58:20;;;;;;;37.63;20.60;;;3.30;1.00;;;;;;4986311;28;21092;-55
2022/12/03 03:00:48;;;;;;;30.93;18.27;;;3.30;1.00;;;;;;4988482;28;20493;-56
2022/12/03 03:03:15;;;;;;;34.70;19.70;;;3.30;1.00;;;;;;4987369;28;20455;-57
2022/12/03 03:05:41;;;;;;;33.90;19.93;;;3.30;1.00;;;;;;4988083;28;20757;-57
2022/12/03 03:08:08;;;;;;;33.30;20.17;;;3.30;1.00;;;;;;4999394;28;20452;-56
2022/12/03 03:10:36;;;;;;;35.97;20.57;;;3.30;1.00;;;;;;4984607;28;20197;-56
2022/12/03 03:13:08;;;;;;;34.60;19.40;;;3.30;1.00;;;;;;4987020;28;20456;-56
2022/12/03 03:15:36;;;;;;;32.60;19.10;;;3.50;1.00;;;;;;4986039;28;20451;-56
2022/12/03 03:18:02;;;;;;;35.57;20.30;;;3.40;1.00;;;;;;4987341;28;20475;-56
2022/12/03 03:20:28;;;;;;;30.43;19.57;;;3.40;1.00;;;;;;4985479;28;20486;-56
2022/12/03 03:23:03;;;;;;;32.27;19.63;;;3.30;1.00;;;;;;4989855;28;20436;-56
2022/12/03 03:25:28;;;;;;;31.70;20.70;;;3.20;1.00;;;;;;4995180;28;20219;-56
2022/12/03 03:27:54;;;;;;;35.80;22.47;;;3.20;1.00;;;;;;4983400;28;20479;-56
2022/12/03 03:30:19;;;;;;;32.63;19.47;;;3.20;1.00;;;;;;4990655;28;20222;-56
2022/12/03 03:32:45;;;;;;;34.03;21.17;;;3.20;1.00;;;;;;4987246;28;20192;-56
2022/12/03 03:35:12;;;;;;;29.13;17.90;;;3.20;1.00;;;;;;4990736;28;20291;-56
2022/12/03 03:37:38;;;;;;;30.67;17.90;;;3.30;1.00;;;;;;4995540;28;20698;-56
2022/12/03 03:40:05;;;;;;;34.83;20.10;;;3.30;1.00;;;;;;4992549;28;20511;-57
2022/12/03 03:42:30;;;;;;;31.77;19.10;;;3.30;1.00;;;;;;4987872;28;20191;-57
2022/12/03 03:44:57;;;;;;;32.60;20.13;;;3.30;1.00;;;;;;4988814;28;20439;-56
2022/12/03 03:47:23;;;;;;;35.83;19.37;;;3.30;1.00;;;;;;4987400;28;20256;-56
2022/12/03 03:49:49;;;;;;;31.90;17.93;;;3.30;1.00;;;;;;4990359;28;20488;-57
2022/12/03 03:52:16;;;;;;;30.53;18.60;;;3.40;1.00;;;;;;4984045;28;20231;-56
2022/12/03 03:54:42;;;;;;;31.07;19.00;;;3.40;1.00;;;;;;4985676;28;20499;-56
2022/12/03 03:57:07;;;;;;;31.70;18.00;;;3.30;1.00;;;;;;4988723;28;20794;-57
2022/12/03 03:59:33;;;;;;;32.00;18.00;;;3.40;1.00;;;;;;4989289;28;20457;-56
2022/12/03 04:01:59;;;;;;;32.97;18.13;;;3.40;1.00;;;;;;4987315;28;20201;-57
2022/12/03 04:04:26;;;;;;;28.03;16.60;;;3.30;1.00;;;;;;4989909;28;20191;-56
2022/12/03 04:06:51;;;;;;;28.83;18.17;;;3.20;1.00;;;;;;4990819;28;20190;-57
2022/12/03 04:09:17;;;;;;;25.97;16.43;;;3.20;1.00;;;;;;4991088;28;20971;-57
2022/12/03 04:14:27;;;;;;;26.77;16.77;;;3.10;1.00;;;;;;4991656;28;20250;-56
2022/12/03 04:16:52;;;;;;;26.10;17.87;;;3.10;1.00;;;;;;4989886;28;20818;-57
2022/12/03 04:19:18;;;;;;;32.70;17.90;;;3.20;1.00;;;;;;4990244;28;20234;-57
2022/12/03 04:24:27;;;;;;;27.93;16.10;;;3.00;1.00;;;;;;4992936;28;20796;-55
2022/12/03 04:29:37;;;;;;;28.50;18.10;;;3.20;1.00;;;;;;4989364;28;20204;-56
2022/12/03 04:37:31;;;;;;;28.83;18.00;;;3.10;1.00;;;;;;4992415;28;20493;-56
2022/12/03 04:39:57;;;;;;;26.10;16.97;;;3.10;1.00;;;;;;4988121;28;20471;-57
2022/12/03 04:42:22;;;;;;;27.70;18.40;;;3.20;1.00;;;;;;4990978;28;20192;-56
2022/12/03 04:44:48;;;;;;;30.70;18.20;;;3.20;1.00;;;;;;4984937;28;20217;-56
2022/12/03 04:47:17;;;;;;;29.57;17.47;;;3.10;1.00;;;;;;4992463;28;20564;-57
2022/12/03 04:49:45;;;;;;;26.60;17.03;;;3.10;1.00;;;;;;4989372;28;20193;-57
2022/12/03 04:52:12;;;;;;;29.83;18.67;;;3.10;1.00;;;;;;4992819;28;20472;-56
2022/12/03 04:54:38;;;;;;;27.80;17.37;;;3.10;1.00;;;;;;4991312;28;20965;-56
2022/12/03 04:57:05;;;;;;;28.63;17.47;;;3.00;1.00;;;;;;4990584;28;20455;-56
2022/12/03 04:59:31;;;;;;;29.80;18.67;;;3.10;1.00;;;;;;4990984;28;20479;-56
2022/12/03 05:01:57;;;;;;;30.83;18.27;;;3.10;1.00;;;;;;4988099;28;20806;-56
2022/12/03 05:04:23;;;;;;;26.83;17.80;;;3.20;1.00;;;;;;4985872;28;20562;-57
2022/12/03 05:06:48;;;;;;;29.43;17.03;;;3.20;1.00;;;;;;4983459;28;20456;-56
2022/12/03 05:09:14;;;;;;;26.97;17.60;;;3.20;1.00;;;;;;4989427;28;20461;-56
2022/12/03 05:11:41;;;;;;;25.90;15.90;;;3.20;1.00;;;;;;4988199;28;20224;-57
2022/12/03 05:14:07;;;;;;;30.90;18.13;;;3.10;1.00;;;;;;4989255;28;20224;-56
2022/12/03 05:16:33;;;;;;;25.17;16.43;;;3.10;1.00;;;;;;4984134;28;20534;-56
2022/12/03 05:18:59;;;;;;;26.77;17.20;;;3.10;1.00;;;;;;4988141;28;20463;-58
2022/12/03 05:21:25;;;;;;;32.27;17.97;;;3.10;1.00;;;;;;4989148;28;20185;-56
2022/12/03 05:23:51;;;;;;;28.30;17.40;;;3.00;1.00;;;;;;4994776;28;20471;-56
2022/12/03 05:26:16;;;;;;;30.93;16.80;;;2.90;1.00;;;;;;4987028;28;20580;-55
2022/12/03 05:28:42;;;;;;;32.33;17.07;;;2.90;1.00;;;;;;4981875;28;20196;-56
2022/12/03 05:31:08;;;;;;;27.33;17.50;;;2.90;1.00;;;;;;4988611;28;20177;-56
2022/12/03 05:33:33;;;;;;;28.70;15.93;;;3.00;1.00;;;;;;4987938;28;20677;-55
2022/12/03 05:35:59;;;;;;;24.83;17.67;;;3.10;1.00;;;;;;4991651;28;20189;-56
2022/12/03 05:38:25;;;;;;;30.70;18.70;;;3.10;1.00;;;;;;4987581;28;20181;-55
2022/12/03 05:40:50;;;;;;;34.93;20.23;;;3.20;1.00;;;;;;4988890;28;20212;-56
2022/12/03 05:43:16;;;;;;;29.47;18.00;;;3.10;1.00;;;;;;4990104;28;20460;-56
2022/12/03 05:45:43;;;;;;;27.53;17.13;;;3.10;1.00;;;;;;4982741;28;20634;-57
2022/12/03 05:48:11;;;;;;;26.97;17.43;;;3.10;1.00;;;;;;5003199;28;20230;-55
2022/12/03 05:50:39;;;;;;;32.50;18.03;;;3.10;1.00;;;;;;4991445;28;20526;-56
2022/12/03 05:53:05;;;;;;;31.53;19.33;;;3.20;1.00;;;;;;4988656;28;20453;-56
2022/12/03 05:55:31;;;;;;;30.20;17.50;;;3.20;1.00;;;;;;4984785;28;21040;-56
2022/12/03 05:57:57;;;;;;;28.97;17.50;;;3.20;1.00;;;;;;4988523;28;21121;-55
2022/12/03 06:00:25;;;;;;;33.13;18.80;;;3.20;1.00;;;;;;4992282;28;20682;-56
2022/12/03 06:02:51;;;;;;;29.43;18.70;;;3.20;1.00;;;;;;4996651;28;20231;-55
2022/12/03 06:05:20;;;;;;;34.53;18.60;;;3.20;1.00;;;;;;4990964;28;20456;-56
2022/12/03 06:07:48;;;;;;;25.20;16.40;;;3.20;1.00;;;;;;4990191;28;20489;-56
2022/12/03 06:10:16;;;;;;;31.23;18.13;;;3.30;1.00;;;;;;4989817;28;20467;-57
2022/12/03 06:12:42;;;;;;;30.60;18.30;;;3.30;1.00;;;;;;4986544;28;20488;-56
2022/12/03 06:15:08;;;;;;;29.57;17.60;;;3.30;1.00;;;;;;4989703;28;20925;-56
2022/12/03 06:17:34;;;;;;;28.43;17.40;;;3.30;1.00;;;;;;4989263;28;20522;-56
2022/12/03 06:20:00;;;;;;;34.73;20.00;;;3.30;1.00;;;;;;4989584;28;20458;-56
2022/12/03 06:22:26;;;;;;;27.83;18.10;;;3.40;1.00;;;;;;4987427;28;20200;-55
2022/12/03 06:24:52;;;;;;;28.47;17.83;;;3.30;1.00;;;;;;4990517;28;20200;-56
2022/12/03 06:27:17;;;;;;;32.97;20.10;;;3.30;1.00;;;;;;4984031;28;20790;-55
2022/12/03 06:29:43;;;;;;;33.73;17.30;;;3.30;1.00;;;;;;4986497;28;20194;-55
2022/12/03 06:32:09;;;;;;;27.67;17.57;;;3.30;1.00;;;;;;4987060;28;20190;-57
2022/12/03 06:34:34;;;;;;;27.33;17.53;;;3.30;1.00;;;;;;4987751;28;20193;-56
2022/12/03 06:37:00;;;;;;;27.97;17.20;;;3.30;1.00;;;;;;4985995;28;20463;-56
2022/12/03 06:39:26;;;;;;;31.00;18.20;;;3.30;1.00;;;;;;4987795;28;20714;-56
2022/12/03 06:41:51;;;;;;;29.30;17.70;;;3.30;1.00;;;;;;4988597;28;21144;-56
2022/12/03 06:44:17;;;;;;;28.20;18.00;;;3.30;1.00;;;;;;4989491;28;20208;-56
2022/12/03 06:46:42;;;;;;;28.70;19.30;;;3.30;1.00;;;;;;4987557;28;20228;-56
2022/12/03 06:49:08;;;;;;;28.60;17.13;;;3.30;1.00;;;;;;4989467;28;20182;-57
2022/12/03 06:51:34;;;;;;;28.40;18.07;;;3.40;1.00;;;;;;4990139;28;20786;-56
2022/12/03 06:54:01;;;;;;;27.50;17.00;;;3.40;1.00;;;;;;4989238;28;20196;-57
2022/12/03 06:56:27;;;;;;;27.43;17.20;;;3.50;1.00;;;;;;4988233;28;20911;-56
2022/12/03 06:58:53;;;;;;;26.93;17.10;;;3.50;1.00;;;;;;4984844;28;20464;-55
2022/12/03 07:01:19;;;;;;;30.70;18.40;;;3.40;1.00;;;;;;4987325;28;20191;-57
2022/12/03 07:03:44;;;;;;;31.13;17.30;;;3.40;1.00;;;;;;4978842;28;20658;-56
2022/12/03 07:06:10;;;;;;;25.87;16.50;;;3.40;1.00;;;;;;4990909;28;20644;-56
2022/12/03 07:08:36;;;;;;;24.03;15.63;;;3.30;1.00;;;;;;4987102;28;20203;-56
2022/12/03 07:11:01;;;;;;;28.40;17.13;;;3.40;1.00;;;;;;4985689;28;20219;-56
2022/12/03 07:13:27;;;;;;;28.70;18.73;;;3.40;1.00;;;;;;4986318;28;20193;-57
2022/12/03 07:15:52;;;;;;;25.97;16.90;;;3.50;1.00;;;;;;4985935;28;20825;-56
2022/12/03 07:18:18;;;;;;;26.40;16.47;;;3.50;1.00;;;;;;4989242;28;20674;-57
2022/12/03 07:20:44;;;;;;;29.17;17.33;;;3.60;1.00;;;;;;4985800;28;20308;-55
2022/12/03 07:23:09;;;;;;;28.30;16.60;;;3.50;1.00;;;;;;4981796;28;20184;-57
2022/12/03 07:25:35;;;;;;;29.07;16.63;;;3.50;1.00;;;;;;4986570;28;20185;-57
2022/12/03 07:28:00;;;;;;;27.43;16.27;;;3.50;1.00;;;;;;4984325;28;20577;-57
2022/12/03 07:30:26;;;;;;;33.07;18.53;;;3.50;1.00;;;;;;4983967;28;20191;-56
2022/12/03 07:32:52;;;;;;;30.20;19.40;;;3.50;1.00;;;;;;4987064;28;20258;-56
2022/12/03 07:35:18;;;;;;;23.87;15.57;;;3.50;1.00;;;;;;4988928;28;20475;-57
2022/12/03 07:37:44;;;;;;;28.97;17.03;;;3.50;1.00;;;;;;4987441;28;20459;-58
2022/12/03 07:40:10;;;;;;;28.87;14.73;;;3.50;1.00;;;;;;4984372;28;20500;-56
2022/12/03 07:42:36;;;;;;;31.10;17.27;;;3.40;1.00;;;;;;4987868;28;20188;-55
2022/12/03 07:45:02;;;;;;;29.50;16.47;;;3.50;1.00;;;;;;4987302;28;20461;-56
2022/12/03 07:47:28;;;;;;;28.57;17.90;;;3.60;1.00;;;;;;4987206;28;20327;-56
2022/12/03 07:49:53;;;;;;;26.20;16.73;;;3.60;1.00;;;;;;4990348;28;20542;-56
2022/12/03 07:52:19;;;;;;;32.90;19.30;;;3.70;1.00;;;;;;4984529;28;20204;-56
2022/12/03 07:54:45;;;;;;;27.93;17.20;;;3.70;1.00;;;;;;4983996;28;20280;-56
2022/12/03 07:57:10;;;;;;;26.73;16.20;;;3.70;1.00;;;;;;4984713;28;20219;-56
2022/12/03 07:59:36;;;;;;;27.00;17.07;;;3.70;1.00;;;;;;4986384;28;20227;-55
2022/12/03 08:02:01;;;;;;;29.77;17.13;;;3.70;1.00;;;;;;4977491;28;20220;-56
2022/12/03 08:04:27;;;;;;;23.67;15.10;;;3.70;1.00;;;;;;4986834;28;20197;-57
2022/12/03 08:06:53;;;;;;;27.80;16.90;;;3.80;1.00;;;;;;4989899;28;20239;-56
2022/12/03 08:09:19;;;;;;;26.87;17.70;;;3.70;1.00;;;;;;4985206;28;20255;-56
2022/12/03 08:11:47;;;;;;;28.27;17.23;;;3.70;1.00;;;;;;4984591;28;20281;-56
2022/12/03 08:14:18;;;;;;;30.00;19.03;;;3.70;1.00;;;;;;4983883;28;20517;-57
2022/12/03 08:16:45;;;;;;;32.53;18.00;;;3.70;1.00;;;;;;4992186;28;20477;-56
2022/12/03 08:19:13;;;;;;;25.90;16.23;;;3.80;1.00;;;;;;4987626;28;20583;-57
2022/12/03 08:21:39;;;;;;;31.90;17.50;;;3.80;1.00;;;;;;4990264;28;20797;-56
2022/12/03 08:24:13;;;;;;;34.17;20.00;;;3.80;1.00;;;;;;4992518;28;20528;-57
2022/12/03 08:26:39;;;;;;;27.37;17.30;;;3.90;1.00;;;;;;4985890;28;20943;-56
2022/12/03 08:29:10;;;;;;;32.97;19.07;;;3.90;1.00;;;;;;4989922;28;21040;-57
2022/12/03 08:31:36;;;;;;;29.30;16.87;;;4.00;1.00;;;;;;4990509;28;20514;-56
2022/12/03 08:34:16;;;;;;;26.43;17.33;;;4.00;1.00;;;;;;5002717;28;20468;-56
2022/12/03 08:36:42;;;;;;;23.27;16.40;;;4.00;1.00;;;;;;4987987;28;20817;-57
2022/12/03 08:39:40;;;;;;;29.53;18.00;;;4.00;1.00;;;;;;4988947;28;20582;-56
2022/12/03 08:45:26;;;;;;;28.50;17.80;;;4.10;1.00;;;;;;4990669;28;20518;-57
2022/12/03 08:47:54;;;;;;;32.57;18.07;;;4.10;1.00;;;;;;4989151;28;20471;-57
2022/12/03 08:50:27;;;;;;;29.83;19.20;;;4.20;1.00;;;;;;4998429;28;20410;-58
2022/12/03 08:52:59;;;;;;;32.10;18.43;;;4.20;1.00;;;;;;4990038;28;20456;-59
2022/12/03 08:55:51;;;;;;;29.13;18.17;;;4.10;1.00;;;;;;4990404;28;21027;-57
2022/12/03 08:58:21;;;;;;;33.53;20.33;;;4.00;1.00;;;;;;4981192;28;20806;-57
2022/12/03 09:00:48;;;;;;;30.63;18.67;;;4.10;1.00;;;;;;4992064;28;20548;-57
2022/12/03 09:03:18;;;;;;;37.47;20.40;;;4.10;1.00;;;;;;4990487;28;20456;-56
2022/12/03 09:05:43;;;;;;;31.70;19.30;;;4.20;1.00;;;;;;4986766;28;22348;-57
2022/12/03 09:08:09;;;;;;;33.17;18.47;;;4.30;1.00;;;;;;4985193;28;20604;-56
2022/12/03 09:10:35;;;;;;;31.50;19.73;;;4.20;1.00;;;;;;4983186;28;20672;-56
2022/12/03 09:13:00;;;;;;;34.77;19.27;;;4.20;1.00;;;;;;4984797;28;20198;-56
2022/12/03 09:15:27;;;;;;;28.57;18.50;;;4.30;1.00;;;;;;4989012;28;20650;-57
2022/12/03 09:17:53;;;;;;;31.63;18.67;;;4.40;1.00;;;;;;4988944;28;20201;-57
2022/12/03 09:20:19;;;;;;;32.60;20.83;;;4.50;1.00;;;;;;4987901;28;20489;-58
2022/12/03 09:22:44;;;;;;;35.10;20.57;;;4.40;1.00;;;;;;4989959;28;20459;-56
2022/12/03 09:25:10;;;;;;;34.20;20.23;;;4.60;1.00;;;;;;4987133;28;20250;-57
2022/12/03 09:27:35;;;;;;;38.90;21.23;;;4.60;1.00;;;;;;4981858;28;20189;-57
2022/12/03 09:30:02;;;;;;;34.60;19.07;;;4.60;1.00;;;;;;4986553;28;20197;-57
2022/12/03 09:32:27;;;;;;;36.23;20.17;;;4.70;1.00;;;;;;4984120;28;20262;-57
2022/12/03 09:34:53;;;;;;;34.43;19.57;;;4.80;1.00;;;;;;4987402;28;20459;-57
2022/12/03 09:37:20;;;;;;;34.17;18.73;;;4.80;1.00;;;;;;4986916;28;20199;-58
2022/12/03 09:39:46;;;;;;;30.60;18.73;;;4.90;1.00;;;;;;4985222;28;20509;-57
2022/12/03 09:42:12;;;;;;;34.80;20.80;;;4.80;1.00;;;;;;4985567;28;20467;-57
2022/12/03 09:44:38;;;;;;;36.87;20.73;;;4.80;1.00;;;;;;4990492;28;20193;-58
2022/12/03 09:47:04;;;;;;;38.00;20.17;;;4.70;1.00;;;;;;4990069;28;20317;-57
2022/12/03 09:49:31;;;;;;;31.20;18.53;;;4.80;1.00;;;;;;4973333;28;20808;-56
2022/12/03 09:52:00;;;;;;;34.57;20.30;;;4.80;1.00;;;;;;5000456;28;20455;-57
2022/12/03 09:54:27;;;;;;;29.10;18.63;;;4.80;1.00;;;;;;4988970;28;20460;-58
2022/12/03 09:56:55;;;;;;;32.90;19.87;;;4.60;1.00;;;;;;4987009;28;20459;-57
2022/12/03 09:59:24;;;;;;;32.83;20.20;;;4.60;1.00;;;;;;4989517;28;20484;-58
2022/12/03 10:01:51;;;;;;;37.27;20.97;;;4.50;1.00;;;;;;4989569;28;20440;-57
2022/12/03 10:04:18;;;;;;;36.53;22.10;;;4.50;1.00;;;;;;4990336;28;21147;-57
2022/12/03 10:06:44;;;;;;;34.47;21.37;;;4.50;1.00;;;;;;4990736;28;20530;-57
2022/12/03 10:09:12;;;;;;;34.47;19.60;;;4.50;1.00;;;;;;4986174;28;20484;-58
2022/12/03 10:11:38;;;;;;;39.83;22.03;;;4.50;1.00;;;;;;4987801;28;20547;-58
2022/12/03 10:14:04;;;;;;;38.70;21.77;;;4.60;1.00;;;;;;4983252;28;20430;-58
2022/12/03 10:16:30;;;;;;;35.90;20.73;;;4.60;1.00;;;;;;4990324;28;20454;-58
2022/12/03 10:18:59;;;;;;;31.93;18.17;;;4.60;1.00;;;;;;4988554;28;20479;-59
2022/12/03 10:21:28;;;;;;;33.30;20.50;;;4.60;1.00;;;;;;4990180;28;20268;-57
2022/12/03 10:24:15;;;;;;;33.30;19.83;;;4.50;1.00;;;;;;4989807;28;20436;-57
2022/12/03 10:26:42;;;;;;;34.40;21.70;;;4.50;1.00;;;;;;5009837;28;20437;-57
2022/12/03 10:29:18;;;;;;;35.20;20.93;;;4.60;1.00;;;;;;5010304;28;20424;-56
2022/12/03 10:31:53;;;;;;;34.20;19.60;;;4.60;1.00;;;;;;5009708;28;20485;-57
2022/12/03 10:34:29;;;;;;;40.40;22.17;;;4.60;1.00;;;;;;4999700;28;20406;-57
2022/12/03 10:37:08;;;;;;;34.20;19.97;;;3.10;1.00;;;;;;4990974;28;20446;-58
2022/12/03 10:39:51;;;;;;;36.40;20.30;;;4.60;1.00;;;;;;4988606;28;20463;-56
2022/12/03 10:42:18;;;;;;;35.60;21.07;;;4.50;1.00;;;;;;4988930;28;20816;-57
2022/12/03 10:44:43;;;;;;;38.33;21.50;;;4.60;1.00;;;;;;4990366;28;20712;-58
2022/12/03 10:47:11;;;;;;;38.73;22.60;;;4.30;1.00;;;;;;4990381;28;20507;-60
2022/12/03 10:49:37;;;;;;;37.97;21.53;;;4.40;1.00;;;;;;4989784;28;20188;-57
2022/12/03 10:52:03;;;;;;;36.10;20.90;;;4.40;1.00;;;;;;4989829;28;20503;-58
2022/12/03 10:54:32;;;;;;;35.83;21.00;;;4.40;1.00;;;;;;4989127;28;20620;-57
2022/12/03 10:56:58;;;;;;;39.10;22.27;;;4.50;1.00;;;;;;4984267;28;20534;-58
2022/12/03 10:59:27;;;;;;;38.50;23.27;;;4.50;1.00;;;;;;4985969;28;20568;-58
2022/12/03 11:01:52;;;;;;;36.70;21.90;;;4.50;1.00;;;;;;4987957;28;20635;-58
2022/12/03 11:04:36;;;;;;;36.87;22.53;;;4.50;1.00;;;;;;4984983;28;20444;-58
2022/12/03 11:07:10;;;;;;;32.37;21.43;;;4.70;1.00;;;;;;4988528;28;20272;-59
2022/12/03 11:09:36;;;;;;;43.73;22.47;;;4.70;1.00;;;;;;4987191;28;20779;-58
2022/12/03 11:12:03;;;;;;;37.97;22.90;;;4.70;1.00;;;;;;4981766;28;20468;-58
2022/12/03 11:14:49;;;;;;;35.33;21.83;;;4.70;1.00;;;;;;4987414;28;20201;-57
2022/12/03 11:17:37;;;;;;;39.07;22.60;;;4.60;1.00;;;;;;4985447;28;20535;-58
2022/12/03 11:20:03;;;;;;;37.93;22.47;;;4.60;1.00;;;;;;4982912;28;20479;-58
2022/12/03 11:22:46;;;;;;;36.63;21.10;;;4.50;1.00;;;;;;4989942;28;20986;-58
2022/12/03 11:25:23;;;;;;;38.70;21.30;;;4.50;1.00;;;;;;4982573;28;20453;-57
2022/12/03 11:28:31;;;;;;;38.50;21.90;;;4.40;1.00;;;;;;4983594;28;20439;-58
2022/12/03 11:31:01;;;;;;;37.67;20.67;;;4.30;1.00;;;;;;4938514;28;20460;-57
2022/12/03 11:33:29;;;;;;;41.43;24.03;;;4.40;1.00;;;;;;4990720;28;20458;-59
2022/12/03 11:36:04;;;;;;;40.33;22.67;;;4.40;1.00;;;;;;4987926;28;20445;-58
2022/12/03 11:38:36;;;;;;;35.87;21.17;;;4.60;1.00;;;;;;4988531;28;20429;-58
2022/12/03 11:41:20;;;;;;;39.30;20.87;;;4.80;1.00;;;;;;4987336;28;20866;-57
2022/12/03 11:43:52;;;;;;;37.70;21.53;;;4.90;1.00;;;;;;4987657;28;20518;-57
2022/12/03 11:46:26;;;;;;;34.67;22.10;;;5.00;1.00;;;;;;4988790;28;20488;-57
2022/12/03 11:48:54;;;;;;;36.80;23.70;;;5.10;1.00;;;;;;4989775;28;20918;-56
2022/12/03 11:51:22;;;;;;;37.97;22.60;;;5.20;1.00;;;;;;4990505;28;20905;-57
2022/12/03 11:53:51;;;;;;;36.47;22.50;;;5.30;1.00;;;;;;4989272;28;20977;-57
2022/12/03 11:56:19;;;;;;;38.80;21.53;;;5.30;1.00;;;;;;5004516;28;20439;-58
2022/12/03 11:58:46;;;;;;;34.77;21.60;;;5.40;1.00;;;;;;5009708;28;20522;-57
2022/12/03 12:01:14;;;;;;;42.17;24.67;;;5.40;1.00;;;;;;4993494;28;20474;-58
2022/12/03 12:03:48;;;;;;;44.80;25.03;;;5.50;1.00;;;;;;4993222;28;20459;-58
2022/12/03 12:06:17;;;;;;;43.63;24.07;;;5.50;1.00;;;;;;4993497;28;20782;-59
2022/12/03 12:08:58;;;;;;;40.87;23.40;;;5.40;1.00;;;;;;5005633;28;20439;-57
2022/12/03 12:11:35;;;;;;;37.93;21.17;;;5.40;1.00;;;;;;4994990;28;20475;-57
2022/12/03 12:14:04;;;;;;;40.00;23.83;;;5.40;1.00;;;;;;4993097;28;20446;-58
2022/12/03 12:16:37;;;;;;;41.60;24.93;;;5.40;1.00;;;;;;4992416;28;20945;-61
2022/12/03 12:19:39;;;;;;;38.57;22.37;;;5.40;1.00;;;;;;4991333;28;20423;-58
2022/12/03 12:22:27;;;;;;;44.57;26.00;;;5.30;1.00;;;;;;4987906;28;21302;-58
2022/12/03 12:24:55;;;;;;;43.87;24.63;;;5.30;1.00;;;;;;4982313;28;20420;-57
2022/12/03 12:27:28;;;;;;;42.10;26.90;;;5.20;1.00;;;;;;4989116;28;20438;-58
2022/12/03 12:29:56;;;;;;;45.07;26.23;;;5.30;1.00;;;;;;4990727;28;21994;-57
2022/12/03 12:32:30;;;;;;;39.60;25.40;;;5.20;1.00;;;;;;4991216;28;20449;-58
2022/12/03 12:35:01;;;;;;;42.00;25.87;;;5.60;1.00;;;;;;4989574;28;20992;-59
2022/12/03 12:37:32;;;;;;;41.73;24.97;;;5.00;1.00;;;;;;4988894;28;20698;-59
2022/12/03 12:39:58;;;;;;;41.83;24.73;;;5.00;1.00;;;;;;4984963;28;20447;-56
2022/12/03 12:42:32;;;;;;;45.23;24.07;;;5.60;1.00;;;;;;4987312;28;20428;-57
2022/12/03 12:45:07;;;;;;;40.63;24.10;;;5.00;1.00;;;;;;4992960;28;20191;-56
2022/12/03 12:47:35;;;;;;;39.80;23.57;;;5.10;1.00;;;;;;4989070;28;20842;-59
2022/12/03 12:50:04;;;;;;;43.80;24.00;;;5.10;1.00;;;;;;4991925;28;20512;-57
2022/12/03 12:52:29;;;;;;;40.63;23.23;;;5.00;1.00;;;;;;4990034;28;20532;-58
2022/12/03 12:54:55;;;;;;;37.40;21.53;;;5.00;1.00;;;;;;4990042;28;21233;-57
2022/12/03 12:57:22;;;;;;;40.30;21.87;;;5.10;1.00;;;;;;4988659;28;20201;-57
2022/12/03 12:59:49;;;;;;;39.53;21.10;;;5.00;1.00;;;;;;4990231;28;20220;-59
2022/12/03 13:02:40;;;;;;;38.37;20.87;;;5.00;1.00;;;;;;4990860;28;20444;-58
2022/12/03 13:05:09;;;;;;;37.13;22.13;;;4.90;1.00;;;;;;5006403;28;20450;-58
2022/12/03 13:07:35;;;;;;;39.47;21.57;;;4.90;1.00;;;;;;4995701;28;20503;-60
2022/12/03 13:10:27;;;;;;;35.07;21.30;;;4.90;1.00;;;;;;4991123;28;20865;-58